Airfield :
LOGIN :

Register | Disclaimer

   EN    FR    IT 

 










Legend :    VFR   Marginal VFR   IFR   Intensive IFR   Very Intensive IFR
Visi :
Ceiling :
>= 8 km
>= 3000ft
5 to 8 km
1000 to 3000 ft
1500m to 5 km
500 to 1000 ft
800 to 1500m
200 to 500 ft
< 800m
< 200 ft
Symbols :   Thunderstorms  Fog  Heavy snow  Heavy precipitations  Wind > 20 kt
SIGMETs :     Misc.  Thunderstorms  Icing  Turbulence  Mountain Waves  Volcanic Ashes







- Airport Elevation : 348 ft
- IATA code : LDV
- Download approach charts


LFRJ - Landivisiau

CURRENT METAR :
  • 300030Z AUTO 21009KT 9999 NSC 13/09 Q1021

EXPIRED METARs :
  • 300000Z AUTO 20008KT 9999 BKN049 BKN058 BKN072 13/09 Q1021
  • 292330Z AUTO 21011KT 9999 SCT048 BKN058 BKN084 14/08 Q1022
  • 292300Z AUTO 19011KT 9999 NSC 14/08 Q1021
  • 292230Z AUTO 19010KT 9999 NSC 14/08 Q1021
  • 292200Z AUTO 18010KT 9999 NSC 13/09 Q1021 NOSIG

TAF TAF LFRJ
Valid from the 29 at 21:00 until the 30 at 06:00 UTC


292000Z 2921/3006 18010KT CAVOK
TEMPO 2921/2924 FEW030 BKN045
No reported NOTAMs for that airfield.



MET'MAP, your aeronautical weather chart ! - Copyright ORBIFLY December 2007 - Disclaimer

ORBIFLY MET'MAP TEAM :

Programming & Development : Alexandra Zaïnal
Concept & Development : Baudouin d'Aumeries
Co-Development & Prog : Marc-Olivier Méhu
Technical & hardware support : Manuel Goepfert

Contact : metmap@orbifly.com




SOURCES & CREDITS :

   NOAA